Time;durP1;ratioP1;P1;durP2;ratioP2;P2;SDS_P1;SDS_P2;PMS_P1;PMS_P2;Temp;Humidity;BMP_temperature;BMP_pressure;BME280_temperature;BME280_humidity;BME280_pressure;Samples;Min_cycle;Max_cycle;Signal;HPM_P1;HPM_P2
2022/07/29 00:01:46;;;;;;;3.42;0.77;;;18.00;99.90;;;;;;5036983;28;20168;-70
2022/07/29 00:04:11;;;;;;;3.05;0.70;;;18.00;99.90;;;;;;5036991;28;20081;-71
2022/07/29 00:06:37;;;;;;;2.47;0.80;;;17.90;99.90;;;;;;5036922;28;20049;-70
2022/07/29 00:09:03;;;;;;;2.63;0.70;;;18.00;99.90;;;;;;5036369;28;20461;-71
2022/07/29 00:11:29;;;;;;;3.63;0.77;;;18.00;99.90;;;;;;5019142;28;20041;-70
2022/07/29 00:13:54;;;;;;;2.08;0.85;;;18.00;99.90;;;;;;5036155;28;20124;-71
2022/07/29 00:16:20;;;;;;;1.90;0.65;;;18.00;99.90;;;;;;5036642;28;20071;-71
2022/07/29 00:18:46;;;;;;;2.83;0.80;;;18.00;99.90;;;;;;5036526;28;20418;-70
2022/07/29 00:21:12;;;;;;;4.53;1.00;;;17.90;99.90;;;;;;5036196;28;20398;-70
2022/07/29 00:23:37;;;;;;;1.67;0.73;;;18.00;99.90;;;;;;5019213;28;20041;-70
2022/07/29 00:26:03;;;;;;;2.13;0.90;;;18.00;99.90;;;;;;5035551;28;20057;-71
2022/07/29 00:28:28;;;;;;;4.32;0.90;;;18.00;99.90;;;;;;5036459;28;20117;-71
2022/07/29 00:30:54;;;;;;;1.90;0.60;;;17.90;99.90;;;;;;5036481;28;20046;-71
2022/07/29 00:33:20;;;;;;;3.60;0.95;;;17.90;99.90;;;;;;5036857;28;20051;-70
2022/07/29 00:35:46;;;;;;;2.45;0.77;;;18.00;99.90;;;;;;5036569;28;20045;-71
2022/07/29 00:38:17;;;;;;;2.08;1.00;;;18.00;99.90;;;;;;5036771;28;20052;-71
2022/07/29 00:40:43;;;;;;;2.30;0.70;;;18.10;99.90;;;;;;5036451;28;20042;-70
2022/07/29 00:43:10;;;;;;;3.75;0.80;;;17.90;99.90;;;;;;5018718;28;20334;-70
2022/07/29 00:45:35;;;;;;;3.90;0.93;;;18.00;99.90;;;;;;5036445;28;20030;-70
2022/07/29 00:48:03;;;;;;;3.92;1.13;;;18.00;99.90;;;;;;5036605;28;20100;-71
2022/07/29 00:50:29;;;;;;;2.55;0.90;;;18.00;99.90;;;;;;5035784;28;20346;-70
2022/07/29 00:52:54;;;;;;;3.05;0.85;;;18.00;99.90;;;;;;5035114;28;20042;-71
2022/07/29 00:55:20;;;;;;;3.25;1.00;;;17.90;99.90;;;;;;5035908;28;20049;-70
2022/07/29 00:57:46;;;;;;;2.85;1.40;;;17.90;99.90;;;;;;5035890;28;20059;-71
2022/07/29 01:00:17;;;;;;;6.43;1.52;;;17.80;99.90;;;;;;5035928;28;20096;-70
2022/07/29 01:02:43;;;;;;;3.42;1.10;;;17.80;99.90;;;;;;5036292;28;20037;-70
2022/07/29 01:05:12;;;;;;;4.40;0.95;;;17.80;99.90;;;;;;5036340;28;20072;-70
2022/07/29 01:07:39;;;;;;;3.22;1.02;;;17.70;99.90;;;;;;5018540;28;20377;-71
2022/07/29 01:10:07;;;;;;;3.53;1.10;;;17.70;99.90;;;;;;5036258;28;20039;-71
2022/07/29 01:12:35;;;;;;;2.95;1.08;;;17.60;99.90;;;;;;5036418;28;20095;-70
2022/07/29 01:15:02;;;;;;;4.80;2.05;;;17.70;99.90;;;;;;5036179;28;20081;-70
2022/07/29 01:17:30;;;;;;;3.17;0.90;;;17.60;99.90;;;;;;5036337;28;20044;-71
2022/07/29 01:20:18;;;;;;;4.38;1.20;;;17.70;99.90;;;;;;5035858;28;20116;-70
2022/07/29 01:22:54;;;;;;;2.45;0.90;;;17.70;99.90;;;;;;5035912;28;20045;-71
2022/07/29 01:25:38;;;;;;;4.25;0.88;;;17.70;99.90;;;;;;5035895;28;20046;-71
2022/07/29 01:28:31;;;;;;;3.50;0.80;;;17.70;99.90;;;;;;5035920;28;20045;-70
2022/07/29 01:31:00;;;;;;;3.15;1.05;;;17.70;99.90;;;;;;5036259;28;20048;-71
2022/07/29 01:36:17;;;;;;;4.35;1.05;;;17.80;99.90;;;;;;5036098;28;20064;-71
2022/07/29 01:38:47;;;;;;;4.38;1.08;;;17.80;99.90;;;;;;5035980;28;20065;-71
2022/07/29 01:41:17;;;;;;;4.00;0.88;;;17.80;99.90;;;;;;5035809;28;20033;-71
2022/07/29 01:43:51;;;;;;;4.65;0.88;;;17.80;99.90;;;;;;5035843;28;20042;-70
2022/07/29 01:46:31;;;;;;;3.50;0.90;;;17.90;99.90;;;;;;5035591;28;20042;-70
2022/07/29 01:49:04;;;;;;;5.35;1.00;;;17.90;99.90;;;;;;5035938;28;20042;-71
2022/07/29 01:51:39;;;;;;;2.97;1.00;;;17.90;99.90;;;;;;5035244;28;20442;-70
2022/07/29 01:54:33;;;;;;;3.97;0.93;;;18.00;99.90;;;;;;5037503;28;20048;-71
2022/07/29 01:57:00;;;;;;;7.47;1.38;;;18.10;99.90;;;;;;5039639;28;20124;-71
2022/07/29 01:59:27;;;;;;;2.17;0.77;;;18.00;99.90;;;;;;5039459;28;20120;-71
2022/07/29 02:01:58;;;;;;;6.32;1.38;;;17.90;99.90;;;;;;5039337;28;20121;-71
2022/07/29 02:04:25;;;;;;;4.93;1.10;;;18.00;99.90;;;;;;5039219;28;20049;-70
2022/07/29 02:06:54;;;;;;;3.70;1.10;;;18.00;99.90;;;;;;5039129;28;20042;-71
2022/07/29 02:09:21;;;;;;;4.05;0.82;;;18.00;99.90;;;;;;5039308;28;20050;-71
2022/07/29 02:11:55;;;;;;;3.28;0.95;;;18.00;99.90;;;;;;5039093;28;20038;-71
2022/07/29 02:14:22;;;;;;;2.75;1.17;;;18.00;99.90;;;;;;5021507;28;20488;-71
2022/07/29 02:16:52;;;;;;;3.58;1.40;;;18.00;99.90;;;;;;5021731;28;20129;-71
2022/07/29 02:19:20;;;;;;;2.15;0.80;;;18.00;99.90;;;;;;5038540;28;20460;-71
2022/07/29 02:21:48;;;;;;;5.68;1.10;;;18.00;99.90;;;;;;5037846;28;20042;-70
2022/07/29 02:24:15;;;;;;;3.05;1.10;;;18.00;99.90;;;;;;5038540;28;20084;-71
2022/07/29 02:26:42;;;;;;;1.80;1.10;;;18.00;99.90;;;;;;5039106;28;20041;-71
2022/07/29 02:29:11;;;;;;;3.67;1.10;;;17.90;99.90;;;;;;5038622;28;20045;-70
2022/07/29 02:31:38;;;;;;;4.38;1.05;;;17.80;99.90;;;;;;5038781;28;20046;-71
2022/07/29 02:34:08;;;;;;;4.00;1.10;;;17.70;99.90;;;;;;5038705;28;20041;-70
2022/07/29 02:36:34;;;;;;;1.65;1.10;;;17.80;99.90;;;;;;5038710;28;20033;-70
2022/07/29 02:39:01;;;;;;;5.43;1.30;;;17.80;99.90;;;;;;5038756;28;20033;-71
2022/07/29 02:42:05;;;;;;;5.00;1.17;;;17.70;99.90;;;;;;5038442;28;20053;-71
2022/07/29 02:44:32;;;;;;;2.60;1.00;;;17.60;99.90;;;;;;5025688;28;20049;-70
2022/07/29 02:47:10;;;;;;;4.18;0.98;;;17.70;99.90;;;;;;5038091;28;20076;-71
2022/07/29 02:49:56;;;;;;;3.40;0.75;;;17.70;99.90;;;;;;5038143;28;20041;-70
2022/07/29 02:52:57;;;;;;;4.80;1.10;;;17.70;99.90;;;;;;5037569;28;20111;-71
2022/07/29 02:55:29;;;;;;;4.78;1.30;;;17.80;99.90;;;;;;5012312;28;20492;-70
2022/07/29 02:58:05;;;;;;;5.75;1.27;;;17.70;99.90;;;;;;5038493;28;20038;-70
2022/07/29 03:00:34;;;;;;;4.82;1.30;;;17.70;99.90;;;;;;5038336;28;20050;-70
2022/07/29 03:03:04;;;;;;;4.75;1.35;;;17.70;99.90;;;;;;5020552;28;20045;-70
2022/07/29 03:05:31;;;;;;;1.77;1.00;;;17.60;99.90;;;;;;5037909;28;20045;-70
2022/07/29 03:08:05;;;;;;;3.28;1.23;;;17.50;99.90;;;;;;5038111;28;20041;-70
2022/07/29 03:10:32;;;;;;;4.88;1.20;;;17.50;99.90;;;;;;5038211;28;20045;-70
2022/07/29 03:12:58;;;;;;;3.20;1.02;;;17.40;99.90;;;;;;5037899;28;20045;-70
2022/07/29 03:15:25;;;;;;;4.93;1.10;;;17.30;99.90;;;;;;5037969;28;20049;-70
2022/07/29 03:17:52;;;;;;;2.45;0.90;;;17.40;99.90;;;;;;5037712;28;20037;-71
2022/07/29 03:20:18;;;;;;;4.75;0.90;;;17.50;99.90;;;;;;5037514;28;20041;-71
2022/07/29 03:22:48;;;;;;;4.47;1.15;;;17.30;99.90;;;;;;5037481;28;20044;-70
2022/07/29 03:25:16;;;;;;;3.92;1.00;;;17.50;99.90;;;;;;5037862;28;20048;-70
2022/07/29 03:27:42;;;;;;;3.67;0.98;;;17.60;99.90;;;;;;5037699;28;20045;-70
2022/07/29 03:30:09;;;;;;;3.58;1.20;;;17.60;99.90;;;;;;5037670;28;20079;-71
2022/07/29 03:32:35;;;;;;;6.80;1.58;;;17.70;99.90;;;;;;5037783;28;20084;-70
2022/07/29 03:35:01;;;;;;;3.60;1.10;;;17.70;99.90;;;;;;5037433;28;20124;-70
2022/07/29 03:37:27;;;;;;;6.53;1.42;;;17.70;99.90;;;;;;5037489;28;20080;-70
2022/07/29 03:39:56;;;;;;;2.75;1.00;;;17.70;99.90;;;;;;5036744;28;20069;-70
2022/07/29 03:42:29;;;;;;;4.03;1.13;;;17.60;99.90;;;;;;5036406;28;20326;-71
2022/07/29 03:44:56;;;;;;;4.65;1.23;;;17.70;99.90;;;;;;5037318;28;20046;-70
2022/07/29 03:47:28;;;;;;;2.53;1.27;;;17.70;99.90;;;;;;5037399;28;20041;-71
2022/07/29 03:49:59;;;;;;;2.13;1.10;;;17.70;99.90;;;;;;5037318;28;20037;-70
2022/07/29 03:52:25;;;;;;;6.68;1.30;;;17.40;99.90;;;;;;5036617;28;20116;-71
2022/07/29 03:54:52;;;;;;;2.80;1.30;;;17.40;99.90;;;;;;5037441;28;20045;-70
2022/07/29 03:57:23;;;;;;;3.05;1.20;;;17.40;99.90;;;;;;5037178;28;20060;-70
2022/07/29 03:59:51;;;;;;;3.75;1.08;;;17.40;99.90;;;;;;5037404;28;20037;-70
2022/07/29 04:02:16;;;;;;;5.93;1.40;;;17.50;99.90;;;;;;5036504;28;20068;-70
2022/07/29 04:04:42;;;;;;;4.43;1.20;;;17.50;99.90;;;;;;5036649;28;20447;-71
2022/07/29 04:07:12;;;;;;;3.83;1.20;;;17.50;99.90;;;;;;5036367;28;20380;-70
2022/07/29 04:09:38;;;;;;;3.10;1.08;;;17.40;99.90;;;;;;5037052;28;20037;-70
2022/07/29 04:12:04;;;;;;;5.13;1.23;;;17.40;99.90;;;;;;5036067;28;20334;-70
2022/07/29 04:14:32;;;;;;;4.00;1.00;;;17.50;99.90;;;;;;5036697;28;20426;-71
2022/07/29 04:16:57;;;;;;;3.42;1.10;;;17.60;99.90;;;;;;5036169;28;20037;-70
2022/07/29 04:19:23;;;;;;;5.68;1.17;;;17.70;99.90;;;;;;5036385;28;20060;-71
2022/07/29 04:21:49;;;;;;;3.95;1.23;;;17.70;99.90;;;;;;5018886;28;20068;-70
2022/07/29 04:24:14;;;;;;;2.85;1.20;;;17.70;99.90;;;;;;5036848;28;20382;-70
2022/07/29 04:26:40;;;;;;;3.38;1.27;;;17.70;99.90;;;;;;5036797;28;20033;-70
2022/07/29 04:29:06;;;;;;;3.42;1.05;;;17.70;99.90;;;;;;5036756;28;20033;-70
2022/07/29 04:31:31;;;;;;;5.40;1.80;;;17.60;99.90;;;;;;5036568;28;20132;-70
2022/07/29 04:33:57;;;;;;;9.02;1.40;;;17.70;99.90;;;;;;5036526;28;20045;-71
2022/07/29 04:36:23;;;;;;;3.08;1.50;;;17.70;99.90;;;;;;5035971;28;20049;-71
2022/07/29 04:38:49;;;;;;;4.57;1.23;;;17.70;99.90;;;;;;5036133;28;20041;-71
2022/07/29 04:41:14;;;;;;;3.95;1.40;;;17.60;99.90;;;;;;5035824;28;20041;-70
2022/07/29 04:43:40;;;;;;;6.15;1.10;;;17.70;99.90;;;;;;5036549;28;20042;-70
2022/07/29 04:46:06;;;;;;;3.97;1.00;;;17.70;99.90;;;;;;5036344;28;20050;-70
2022/07/29 04:48:32;;;;;;;3.20;1.38;;;17.70;99.90;;;;;;5036506;28;20034;-72
2022/07/29 04:50:58;;;;;;;4.85;1.55;;;17.70;99.90;;;;;;5036583;28;20083;-70
2022/07/29 04:53:24;;;;;;;4.75;1.23;;;17.60;99.90;;;;;;5036450;28;20337;-70
2022/07/29 04:55:50;;;;;;;4.30;1.17;;;17.70;99.90;;;;;;5036383;28;20048;-70
2022/07/29 04:58:16;;;;;;;5.78;1.40;;;17.70;99.90;;;;;;5036331;28;20034;-70
2022/07/29 05:00:41;;;;;;;3.60;1.30;;;17.70;99.90;;;;;;5035919;28;20120;-70
2022/07/29 05:03:07;;;;;;;4.18;1.35;;;17.50;99.90;;;;;;5018152;28;20041;-70
2022/07/29 05:05:33;;;;;;;6.82;1.33;;;17.60;99.90;;;;;;5035563;28;20057;-71
2022/07/29 05:07:59;;;;;;;7.90;1.20;;;17.70;99.90;;;;;;5035861;28;20124;-70
2022/07/29 05:10:25;;;;;;;6.15;1.40;;;17.70;99.90;;;;;;5035664;28;20034;-71
2022/07/29 05:12:50;;;;;;;4.97;1.20;;;17.80;99.90;;;;;;5035713;28;20044;-70
2022/07/29 05:15:17;;;;;;;4.63;1.00;;;17.80;99.90;;;;;;5035667;28;20504;-70
2022/07/29 05:17:43;;;;;;;4.35;1.30;;;17.90;99.90;;;;;;5035610;28;20048;-71
2022/07/29 05:20:09;;;;;;;3.38;1.40;;;17.90;99.90;;;;;;5035446;28;20063;-71
2022/07/29 05:22:35;;;;;;;6.05;1.17;;;18.00;99.90;;;;;;5035285;28;20056;-71
2022/07/29 05:25:01;;;;;;;3.03;1.25;;;18.00;99.90;;;;;;5035380;28;20033;-70
2022/07/29 05:27:26;;;;;;;6.13;1.40;;;17.90;99.90;;;;;;5034420;28;20041;-71
2022/07/29 05:29:52;;;;;;;7.15;1.45;;;17.90;99.90;;;;;;5021494;28;20056;-70
2022/07/29 05:32:18;;;;;;;4.78;1.27;;;17.90;99.90;;;;;;5039929;28;20041;-70
2022/07/29 05:34:43;;;;;;;7.80;1.48;;;17.90;99.90;;;;;;5038976;28;20038;-71
2022/07/29 05:37:09;;;;;;;4.20;1.40;;;17.80;99.90;;;;;;5039949;28;20042;-70
2022/07/29 05:39:35;;;;;;;5.40;1.27;;;17.90;99.90;;;;;;5022589;28;20041;-70
2022/07/29 05:42:00;;;;;;;10.23;1.60;;;18.00;99.90;;;;;;5039628;28;20048;-70
2022/07/29 05:44:26;;;;;;;3.60;1.10;;;18.10;99.90;;;;;;5039919;28;20098;-70
2022/07/29 05:46:52;;;;;;;3.15;1.20;;;18.10;99.90;;;;;;5039440;28;20489;-70
2022/07/29 05:49:18;;;;;;;6.18;0.93;;;18.00;99.90;;;;;;5039581;28;20037;-71
2022/07/29 05:51:44;;;;;;;5.38;1.35;;;18.10;99.90;;;;;;5039321;28;20041;-70
2022/07/29 05:54:10;;;;;;;4.75;1.30;;;18.20;99.90;;;;;;5039305;28;20049;-70
2022/07/29 05:56:36;;;;;;;5.15;1.20;;;18.20;99.90;;;;;;5039413;28;20099;-71
2022/07/29 05:59:03;;;;;;;6.03;1.50;;;18.20;99.90;;;;;;5022024;28;20128;-70
2022/07/29 06:01:28;;;;;;;3.08;1.30;;;18.20;99.90;;;;;;5005581;28;20350;-70
2022/07/29 06:03:54;;;;;;;6.88;1.60;;;18.30;99.90;;;;;;5021841;28;20038;-70
2022/07/29 06:06:20;;;;;;;5.70;1.30;;;18.40;99.90;;;;;;5039569;28;20377;-70
2022/07/29 06:08:45;;;;;;;4.75;1.35;;;18.40;99.90;;;;;;5039045;28;20041;-70
2022/07/29 06:11:11;;;;;;;3.92;1.23;;;18.40;99.90;;;;;;5037524;28;20295;-70
2022/07/29 06:13:37;;;;;;;6.28;1.30;;;18.40;99.90;;;;;;5038760;28;20041;-71
2022/07/29 06:16:03;;;;;;;5.05;1.20;;;18.20;99.90;;;;;;5038935;28;20335;-71
2022/07/29 06:18:29;;;;;;;11.63;1.48;;;18.20;99.90;;;;;;5038820;28;20057;-71
2022/07/29 06:20:55;;;;;;;5.70;1.40;;;18.20;99.90;;;;;;5038840;28;20052;-70
2022/07/29 06:23:21;;;;;;;4.75;1.27;;;18.30;99.90;;;;;;5038784;28;20072;-70
2022/07/29 06:25:46;;;;;;;4.78;1.50;;;18.40;99.90;;;;;;5037793;28;20120;-70
2022/07/29 06:28:12;;;;;;;6.57;1.17;;;18.50;99.90;;;;;;5039089;28;20038;-70
2022/07/29 06:30:39;;;;;;;5.53;1.33;;;18.50;99.90;;;;;;5038735;28;20120;-70
2022/07/29 06:33:05;;;;;;;7.63;1.48;;;18.40;99.90;;;;;;5038954;28;20048;-71
2022/07/29 06:35:34;;;;;;;9.43;1.30;;;18.40;99.90;;;;;;5038837;28;20045;-71
2022/07/29 06:38:00;;;;;;;4.85;1.48;;;18.60;99.90;;;;;;5038819;28;20099;-71
2022/07/29 06:43:10;;;;;;;9.10;1.58;;;18.60;99.90;;;;;;5038000;28;20506;-70
2022/07/29 06:45:36;;;;;;;3.78;1.50;;;18.60;99.90;;;;;;5038163;28;20046;-70
2022/07/29 06:48:02;;;;;;;4.10;1.55;;;18.70;99.90;;;;;;5038585;28;20111;-70
2022/07/29 06:50:28;;;;;;;4.18;1.25;;;18.80;99.90;;;;;;5038684;28;20037;-70
2022/07/29 06:52:53;;;;;;;4.32;1.60;;;18.90;99.90;;;;;;5037899;28;20122;-71
2022/07/29 06:55:19;;;;;;;5.70;2.08;;;19.10;99.90;;;;;;5037231;28;20048;-71
2022/07/29 06:57:46;;;;;;;4.15;1.17;;;19.20;99.90;;;;;;5020880;28;20044;-70
2022/07/29 07:00:12;;;;;;;1.77;1.20;;;19.30;99.90;;;;;;5038307;28;20112;-71
2022/07/29 07:02:38;;;;;;;4.40;1.48;;;19.30;99.90;;;;;;5038387;28;20397;-71
2022/07/29 07:05:05;;;;;;;6.97;1.48;;;19.40;99.90;;;;;;5038056;28;20125;-70
2022/07/29 07:07:30;;;;;;;3.88;1.40;;;19.40;99.90;;;;;;5038314;28;20117;-70
2022/07/29 07:09:56;;;;;;;7.22;1.60;;;19.40;99.90;;;;;;5037995;28;20116;-70
2022/07/29 07:12:22;;;;;;;5.03;1.70;;;19.40;99.90;;;;;;5038100;28;20053;-70
2022/07/29 07:14:48;;;;;;;5.25;1.50;;;19.40;99.90;;;;;;5038352;28;20037;-71
2022/07/29 07:17:13;;;;;;;3.58;1.55;;;19.30;99.90;;;;;;5037750;28;20171;-70
2022/07/29 07:19:39;;;;;;;5.10;1.50;;;19.20;99.90;;;;;;5037799;28;20046;-72
2022/07/29 07:22:05;;;;;;;5.50;1.30;;;19.00;99.90;;;;;;5037336;28;20053;-68
2022/07/29 07:24:31;;;;;;;6.88;1.55;;;18.80;99.90;;;;;;5037684;28;20048;-67
2022/07/29 07:26:56;;;;;;;5.57;1.67;;;18.80;99.90;;;;;;5037573;28;20127;-68
2022/07/29 07:29:22;;;;;;;6.50;1.90;;;18.80;99.90;;;;;;5037702;28;20077;-69
2022/07/29 07:31:48;;;;;;;7.65;1.60;;;18.90;99.90;;;;;;5037443;28;20073;-69
2022/07/29 07:34:13;;;;;;;6.38;1.63;;;18.90;99.90;;;;;;5037691;28;20042;-70
2022/07/29 07:36:39;;;;;;;5.63;1.67;;;19.00;99.90;;;;;;5037673;28;20041;-69
2022/07/29 07:39:05;;;;;;;7.72;1.50;;;19.20;99.90;;;;;;5037541;28;20043;-69
2022/07/29 07:41:31;;;;;;;9.95;1.75;;;19.20;99.90;;;;;;5037427;28;20103;-69
2022/07/29 07:43:56;;;;;;;7.78;1.90;;;19.30;99.90;;;;;;5037138;28;20410;-69
2022/07/29 07:46:22;;;;;;;7.47;1.52;;;19.20;99.90;;;;;;5037378;28;20335;-71
2022/07/29 07:48:47;;;;;;;5.82;1.63;;;19.10;99.90;;;;;;5037361;28;20037;-69
2022/07/29 07:51:13;;;;;;;3.90;1.52;;;19.00;99.90;;;;;;5036873;28;20034;-69
2022/07/29 07:53:39;;;;;;;8.98;1.90;;;19.20;99.90;;;;;;5037085;28;20155;-69
2022/07/29 07:56:06;;;;;;;3.67;1.70;;;19.40;99.90;;;;;;5036428;28;20045;-68
2022/07/29 07:58:32;;;;;;;5.43;1.50;;;19.40;99.90;;;;;;5036969;28;20049;-71
2022/07/29 08:00:57;;;;;;;3.88;1.48;;;19.40;99.90;;;;;;5037641;28;20046;-70
2022/07/29 08:03:23;;;;;;;5.15;1.38;;;19.70;99.90;;;;;;5040352;28;20041;-72
2022/07/29 08:05:51;;;;;;;7.82;1.67;;;19.80;99.90;;;;;;5037128;28;20056;-70
2022/07/29 08:08:17;;;;;;;7.40;1.50;;;20.00;99.90;;;;;;5036986;28;20043;-70
2022/07/29 08:10:52;;;;;;;6.95;1.77;;;20.10;99.90;;;;;;5037077;28;20041;-69
2022/07/29 08:13:22;;;;;;;4.85;1.58;;;20.20;99.90;;;;;;5036783;28;20447;-70
2022/07/29 08:15:57;;;;;;;3.30;1.60;;;20.10;99.90;;;;;;5036995;28;20033;-69
2022/07/29 08:18:27;;;;;;;6.55;1.90;;;20.10;99.90;;;;;;5036613;28;20100;-69
2022/07/29 08:20:52;;;;;;;5.47;1.70;;;19.90;99.90;;;;;;5036610;28;20057;-69
2022/07/29 08:23:21;;;;;;;5.82;1.70;;;19.90;99.90;;;;;;5036266;28;20041;-69
2022/07/29 08:25:47;;;;;;;7.53;2.20;;;19.90;99.90;;;;;;5036509;28;20868;-69
2022/07/29 08:28:13;;;;;;;5.28;1.88;;;20.00;99.90;;;;;;5036693;28;20046;-69
2022/07/29 08:30:38;;;;;;;4.00;1.98;;;20.00;99.90;;;;;;5035900;28;20041;-69
2022/07/29 08:33:04;;;;;;;4.68;1.88;;;20.00;99.90;;;;;;5035669;28;20033;-69
2022/07/29 08:35:30;;;;;;;8.95;1.92;;;20.10;99.80;;;;;;5036787;28;20112;-69
2022/07/29 08:37:56;;;;;;;4.93;2.20;;;20.10;99.80;;;;;;5036455;28;20129;-69
2022/07/29 08:40:23;;;;;;;6.55;2.15;;;20.10;99.80;;;;;;5036447;28;20061;-69
2022/07/29 08:42:49;;;;;;;7.45;1.92;;;20.00;99.90;;;;;;5036554;28;20109;-69
2022/07/29 08:45:16;;;;;;;5.00;2.30;;;20.00;99.90;;;;;;5036300;28;20103;-69
2022/07/29 08:47:44;;;;;;;5.55;1.70;;;20.20;99.90;;;;;;5019136;28;20037;-69
2022/07/29 08:50:10;;;;;;;5.05;1.75;;;20.20;99.90;;;;;;5036361;28;20171;-69
2022/07/29 08:52:38;;;;;;;6.65;2.08;;;20.40;99.90;;;;;;5035930;28;20048;-69
2022/07/29 08:55:05;;;;;;;3.95;1.90;;;20.40;99.90;;;;;;5036363;28;20041;-69
2022/07/29 08:57:32;;;;;;;4.78;1.50;;;20.40;99.90;;;;;;5036693;28;20441;-69
2022/07/29 09:00:10;;;;;;;4.43;1.83;;;20.60;99.80;;;;;;5036255;28;20485;-68
2022/07/29 09:02:41;;;;;;;7.03;1.80;;;20.60;99.80;;;;;;5036439;28;20419;-89
2022/07/29 09:05:08;;;;;;;7.82;2.20;;;20.50;99.60;;;;;;5022247;28;20095;-68
2022/07/29 09:07:33;;;;;;;6.88;2.53;;;20.50;99.80;;;;;;5040609;28;20037;-68
2022/07/29 09:10:00;;;;;;;6.53;1.90;;;20.50;99.90;;;;;;5039371;28;20415;-68
2022/07/29 09:12:26;;;;;;;3.70;1.88;;;20.50;99.90;;;;;;5040208;28;20486;-68
2022/07/29 09:14:52;;;;;;;4.72;1.60;;;20.50;99.90;;;;;;5040402;28;20121;-68
2022/07/29 09:17:38;;;;;;;7.70;2.20;;;20.80;99.90;;;;;;5040182;28;20072;-69
2022/07/29 09:20:24;;;;;;;6.32;1.98;;;21.00;99.90;;;;;;5039977;28;20045;-68
2022/07/29 09:22:52;;;;;;;4.57;1.85;;;21.30;99.90;;;;;;5039082;28;20358;-84
2022/07/29 09:25:35;;;;;;;4.65;2.05;;;21.10;99.80;;;;;;5022747;28;20053;-85
2022/07/29 09:28:08;;;;;;;6.95;1.80;;;20.70;99.90;;;;;;5022711;28;20129;-85
2022/07/29 09:30:34;;;;;;;8.05;1.70;;;20.40;99.90;;;;;;5022627;28;20104;-83
2022/07/29 09:33:03;;;;;;;3.88;1.85;;;20.50;99.90;;;;;;5022459;28;20385;-86
2022/07/29 09:35:30;;;;;;;6.70;2.08;;;20.10;99.90;;;;;;5022759;28;20354;-76
2022/07/29 09:37:56;;;;;;;4.85;1.80;;;20.10;99.90;;;;;;5040246;28;20045;-90
2022/07/29 09:40:27;;;;;;;7.20;1.90;;;20.30;99.90;;;;;;5040073;28;20133;-89
2022/07/29 09:42:56;;;;;;;9.10;2.08;;;20.30;99.90;;;;;;5039657;28;20496;-85
2022/07/29 09:45:33;;;;;;;8.85;2.15;;;20.20;99.90;;;;;;5022247;28;20175;-78
2022/07/29 09:48:12;;;;;;;3.28;1.70;;;20.00;99.90;;;;;;5038827;28;20041;-86
2022/07/29 09:50:43;;;;;;;5.93;1.92;;;20.10;99.90;;;;;;5022725;28;20042;-91
2022/07/29 09:53:10;;;;;;;5.70;2.00;;;20.20;99.90;;;;;;5021768;28;20037;-69
2022/07/29 09:55:50;;;;;;;4.95;2.13;;;20.20;99.90;;;;;;5039481;28;20038;-68
2022/07/29 09:58:21;;;;;;;9.85;2.88;;;20.50;99.90;;;;;;5039355;28;20458;-68
2022/07/29 10:00:49;;;;;;;7.05;2.10;;;20.60;99.90;;;;;;5039315;28;20041;-67
2022/07/29 10:03:16;;;;;;;5.65;2.10;;;20.80;99.90;;;;;;5039333;28;20080;-69
2022/07/29 10:05:42;;;;;;;6.90;2.08;;;21.00;99.90;;;;;;5039321;28;20300;-69
2022/07/29 10:08:10;;;;;;;5.57;2.00;;;21.10;99.90;;;;;;5039461;28;20323;-84
2022/07/29 10:10:41;;;;;;;4.25;1.88;;;21.30;99.90;;;;;;5005449;28;20120;-85
2022/07/29 10:13:10;;;;;;;5.57;1.95;;;21.00;99.90;;;;;;5005261;28;20042;-86
2022/07/29 10:15:43;;;;;;;4.60;2.03;;;20.70;99.90;;;;;;5020441;28;20334;-85
2022/07/29 10:18:11;;;;;;;6.18;2.00;;;20.70;99.90;;;;;;5001624;28;20063;-86
2022/07/29 10:20:37;;;;;;;12.57;2.50;;;20.50;99.90;;;;;;5001838;28;20041;-86
2022/07/29 10:23:04;;;;;;;9.38;2.20;;;20.50;99.90;;;;;;5017849;28;20038;-86
2022/07/29 10:25:30;;;;;;;4.03;2.03;;;20.30;99.90;;;;;;5001712;28;20415;-82
2022/07/29 10:27:56;;;;;;;4.43;2.50;;;20.40;99.90;;;;;;5001936;28;20038;-82
2022/07/29 10:30:24;;;;;;;6.05;1.88;;;20.40;99.90;;;;;;5001587;28;20427;-83
2022/07/29 10:32:56;;;;;;;6.85;2.40;;;20.20;99.90;;;;;;5017659;28;20085;-82
2022/07/29 10:35:44;;;;;;;6.65;2.28;;;20.20;99.90;;;;;;5017814;28;20050;-82
2022/07/29 10:38:31;;;;;;;6.45;2.30;;;20.40;99.90;;;;;;5002025;28;20375;-83
2022/07/29 10:41:27;;;;;;;6.97;2.30;;;20.60;99.90;;;;;;5017666;28;20042;-82
2022/07/29 10:44:06;;;;;;;8.05;2.00;;;20.70;99.90;;;;;;5001641;28;20124;-82
2022/07/29 10:46:39;;;;;;;7.72;2.08;;;20.80;99.90;;;;;;5001388;28;20180;-82
2022/07/29 10:49:06;;;;;;;8.88;2.10;;;21.00;99.90;;;;;;5017849;28;20056;-92
2022/07/29 10:51:50;;;;;;;6.05;2.25;;;21.20;99.90;;;;;;5000855;28;20061;-75
2022/07/29 10:54:17;;;;;;;5.53;2.00;;;21.20;99.90;;;;;;5018439;28;20038;-71
2022/07/29 10:56:43;;;;;;;5.63;2.05;;;21.10;99.90;;;;;;5018685;28;20046;-75
2022/07/29 10:59:19;;;;;;;7.35;2.30;;;21.10;99.90;;;;;;5018723;28;20049;-75
2022/07/29 11:01:49;;;;;;;9.32;2.40;;;20.80;99.90;;;;;;5017447;28;20046;-76
2022/07/29 11:04:15;;;;;;;8.57;2.25;;;20.50;99.90;;;;;;5018676;28;20138;-78
2022/07/29 11:07:05;;;;;;;8.07;1.92;;;20.60;99.90;;;;;;5019635;28;20490;-80
2022/07/29 11:09:31;;;;;;;4.57;2.33;;;20.60;99.90;;;;;;5018557;28;20038;-77
2022/07/29 11:11:57;;;;;;;9.10;2.40;;;20.60;99.90;;;;;;5018324;28;20347;-76
2022/07/29 11:14:58;;;;;;;9.23;2.72;;;20.70;99.90;;;;;;5018135;28;20335;-78
2022/07/29 11:17:24;;;;;;;6.35;2.28;;;20.80;99.90;;;;;;5018401;28;20038;-75
2022/07/29 11:19:51;;;;;;;5.95;2.65;;;20.80;99.90;;;;;;5036426;28;20056;-75
2022/07/29 11:22:34;;;;;;;6.50;2.40;;;21.00;99.90;;;;;;5020212;28;20434;-76
2022/07/29 11:25:16;;;;;;;5.28;2.33;;;21.00;99.90;;;;;;5037209;28;20073;-74
2022/07/29 11:27:44;;;;;;;9.23;2.88;;;21.10;99.90;;;;;;5019662;28;20045;-68
2022/07/29 11:30:11;;;;;;;8.60;3.25;;;21.30;99.90;;;;;;5037932;28;20045;-68
2022/07/29 11:32:40;;;;;;;8.52;2.50;;;21.60;99.90;;;;;;5020139;28;20049;-68
2022/07/29 11:35:23;;;;;;;7.47;2.88;;;21.80;99.90;;;;;;5037637;28;20042;-67
2022/07/29 11:38:29;;;;;;;7.65;2.40;;;22.20;99.90;;;;;;5037646;28;20486;-68
2022/07/29 11:41:21;;;;;;;10.15;2.72;;;22.60;99.90;;;;;;5037226;28;20334;-69
2022/07/29 11:43:47;;;;;;;6.55;2.80;;;23.00;99.90;;;;;;5019861;28;20120;-68
2022/07/29 11:46:14;;;;;;;8.73;2.92;;;23.40;99.80;;;;;;5037411;28;20038;-68
2022/07/29 11:48:43;;;;;;;5.75;2.60;;;23.70;99.90;;;;;;5037494;28;20044;-68
2022/07/29 11:51:13;;;;;;;6.63;2.10;;;23.90;99.70;;;;;;5037273;28;20091;-68
2022/07/29 11:53:39;;;;;;;10.45;2.90;;;24.00;99.70;;;;;;5037113;28;20049;-68
2022/07/29 11:56:09;;;;;;;9.38;2.50;;;24.10;99.40;;;;;;5037149;28;20132;-69
2022/07/29 11:58:35;;;;;;;8.07;2.50;;;24.00;99.30;;;;;;5037251;28;20057;-68
2022/07/29 12:01:01;;;;;;;4.95;2.63;;;23.80;99.40;;;;;;5037187;28;20103;-68
2022/07/29 12:03:28;;;;;;;8.80;2.38;;;23.80;99.30;;;;;;5037298;28;20033;-68
2022/07/29 12:05:54;;;;;;;8.68;3.03;;;23.90;99.90;;;;;;5019637;28;20041;-68
2022/07/29 12:08:22;;;;;;;11.68;2.58;;;23.90;99.20;;;;;;5019430;28;20098;-68
2022/07/29 12:10:49;;;;;;;6.25;2.42;;;23.70;99.20;;;;;;5036838;28;20033;-68
2022/07/29 12:13:17;;;;;;;9.35;2.97;;;23.70;99.20;;;;;;5037050;28;20069;-68
2022/07/29 12:15:52;;;;;;;6.78;2.42;;;23.80;99.30;;;;;;5036764;28;20041;-68
2022/07/29 12:18:19;;;;;;;8.27;2.33;;;23.90;99.40;;;;;;5036597;28;20049;-68
2022/07/29 12:20:46;;;;;;;8.70;2.63;;;24.00;99.10;;;;;;5036846;28;20041;-68
2022/07/29 12:23:13;;;;;;;10.60;2.90;;;24.10;99.10;;;;;;5036576;28;20150;-68
2022/07/29 12:25:41;;;;;;;4.47;2.50;;;24.30;99.10;;;;;;5036768;28;20108;-69
2022/07/29 12:28:12;;;;;;;5.82;2.30;;;24.40;99.40;;;;;;5035817;28;20048;-68
2022/07/29 12:30:48;;;;;;;7.40;2.15;;;24.70;99.20;;;;;;5036688;28;20072;-68
2022/07/29 12:33:20;;;;;;;8.40;2.42;;;24.50;99.10;;;;;;5036811;28;20115;-68
2022/07/29 12:36:07;;;;;;;8.60;2.20;;;24.50;98.80;;;;;;5036785;28;20037;-68
2022/07/29 12:38:34;;;;;;;4.55;1.67;;;24.50;98.60;;;;;;5035933;28;20038;-84
2022/07/29 12:41:00;;;;;;;4.50;1.90;;;24.70;99.00;;;;;;5002620;28;20073;-68
2022/07/29 12:43:26;;;;;;;10.32;2.60;;;24.80;98.90;;;;;;5036434;28;20038;-68
2022/07/29 12:45:55;;;;;;;7.97;1.92;;;25.10;98.60;;;;;;5036469;28;20330;-68
2022/07/29 12:48:37;;;;;;;5.95;2.33;;;25.10;98.60;;;;;;5036463;28;20078;-68
2022/07/29 12:51:05;;;;;;;5.78;2.33;;;25.20;98.20;;;;;;5036286;28;20188;-68
2022/07/29 12:53:31;;;;;;;7.72;2.67;;;25.10;98.30;;;;;;5035887;28;20407;-68
2022/07/29 12:56:01;;;;;;;6.68;2.10;;;25.10;98.30;;;;;;5018797;28;20084;-68
2022/07/29 12:58:34;;;;;;;7.00;2.20;;;25.20;98.50;;;;;;5019692;28;20102;-69
2022/07/29 13:01:02;;;;;;;9.73;2.25;;;25.40;98.80;;;;;;5036157;28;20355;-68